Flight Track Log - Related Links

Times and Time Zones

All times are in EDT time to prevent confusion due to time zone crossing. See the N2162K flight status page for this flight to view local times or setup timezone preferences in your user account.


Time Position Orientation Groundspeed Altitude Reporting Facility
EDT Latitude Longitude Course Direction KTS MPH feet Rate Location/Type
Fri 11:53:28 AM 38.9547 -87.4228 37° Northeast 139 160 5,000  Level Indianapolis Center
Fri 11:54:30 AM 38.9842 -87.3889 42° Northeast 141 162 5,000  Level Indianapolis Center
Fri 11:55:31 AM 39.0122 -87.3497 47° Northeast 143 165 5,000  Level Indianapolis Center
Fri 11:56:33 AM 39.0394 -87.3117 47° Northeast 144 166 5,000  Level Indianapolis Center
Fri 11:57:35 AM 39.0656 -87.2753 47° Northeast 142 163 5,000  Level Indianapolis Center
Fri 11:58:37 AM 39.0931 -87.2369 47° Northeast 143 165 5,000  Level Indianapolis Center
Fri 11:59:39 AM 39.1203 -87.2003 46° Northeast 142 163 5,000  Level Indianapolis Center
Fri 12:00:41 PM 39.1542 -87.1589 43° Northeast 142 163 5,000  Level Indianapolis Center
Fri 12:01:42 PM 39.1833 -87.1244 42° Northeast 142 163 5,000  Level Indianapolis Center
Fri 12:02:44 PM 39.2114 -87.0917 42° Northeast 140 161 5,000  Level Indianapolis Center
Fri 12:03:46 PM 39.2372 -87.0553 47° Northeast 139 160 5,000  Level Indianapolis Center
Fri 12:04:48 PM 39.2672 -87.0211 41° Northeast 141 162 5,000  Level Indianapolis Center
Fri 12:05:50 PM 39.2978 -86.9883 40° Northeast 143 165 5,000  Level Indianapolis Center
Fri 12:06:51 PM 39.3317 -86.9486 42° Northeast 140 161 5,000  Level Indianapolis Center
Fri 12:07:53 PM 39.3572 -86.9125 48° Northeast 138 159 5,000  Level Indianapolis Center
Fri 12:08:55 PM 39.3828 -86.8739 49° Northeast 139 160 5,000  Level Indianapolis Center
Fri 12:09:57 PM 39.4069 -86.8331 53° Northeast 141 162 5,000 -49 Level Indianapolis Center
Fri 12:10:58 PM 39.4394 -86.7956 42° Northeast 144 166 4,900  Descending Indianapolis Center
Fri 12:12:00 PM 39.4675 -86.7644 41° Northeast 144 166 5,000 97 Climbing Indianapolis Center
Fri 12:13:02 PM 39.4936 -86.7294 46° Northeast 141 162 5,100  Climbing Indianapolis Center
Fri 12:14:04 PM 39.5272 -86.6861 45° Northeast 141 162 5,000  Descending Indianapolis Center
Fri 12:15:06 PM 39.5561 -86.6503 44° Northeast 142 163 5,100 -146 Climbing Indianapolis Center
Fri 12:16:07 PM 39.5886 -86.6253 31° Northeast 139 160 4,700 -488 Descending Indianapolis Center
Fri 12:17:09 PM 39.6225 -86.6061 24° Northeast 135 155 4,100 -339 Descending Indianapolis Center
Fri 12:18:11 PM 39.6572 -86.5889 21° North 134 154 4,000  Descending Indianapolis Center
Fri 12:19:13 PM 39.6944 -86.5694 22° Northeast 138 159 4,100 -171 Climbing Indianapolis Center
Fri 12:24:37 PM 39.8770 -86.4490 22° Northeast 138 159 2,900 -197 Descending FlightAware ADS-B
Fri 12:29:51 PM 39.8520 -86.3130 103° East 118 136 2,000 -172 Descending FlightAware ADS-B

Login

Don't have an account? Register now (free) for customized features, flight alerts, and more!